sensor_id;sensor_type;location;lat;lon;timestamp;P1;durP1;ratioP1;P2;durP2;ratioP2
27977;SDS011;15314;49.248;6.968;2022-09-21T00:00:31;9.73;;;8.80;;
27977;SDS011;15314;49.248;6.968;2022-09-21T00:01:32;9.35;;;8.55;;
27977;SDS011;15314;49.248;6.968;2022-09-21T00:02:32;10.50;;;9.10;;
27977;SDS011;15314;49.248;6.968;2022-09-21T00:03:33;9.45;;;8.73;;
27977;SDS011;15314;49.248;6.968;2022-09-21T00:04:35;9.95;;;9.00;;
27977;SDS011;15314;49.248;6.968;2022-09-21T00:05:35;9.65;;;8.80;;
27977;SDS011;15314;49.248;6.968;2022-09-21T00:06:37;9.60;;;8.77;;
27977;SDS011;15314;49.248;6.968;2022-09-21T00:07:37;9.73;;;8.82;;
27977;SDS011;15314;49.248;6.968;2022-09-21T00:08:38;9.52;;;8.90;;
27977;SDS011;15314;49.248;6.968;2022-09-21T00:09:39;11.20;;;10.10;;
27977;SDS011;15314;49.248;6.968;2022-09-21T00:10:40;9.93;;;9.23;;
27977;SDS011;15314;49.248;6.968;2022-09-21T00:11:40;9.93;;;9.07;;
27977;SDS011;15314;49.248;6.968;2022-09-21T00:12:41;9.80;;;8.90;;
27977;SDS011;15314;49.248;6.968;2022-09-21T00:13:42;10.73;;;9.73;;
27977;SDS011;15314;49.248;6.968;2022-09-21T00:14:44;9.93;;;9.10;;
27977;SDS011;15314;49.248;6.968;2022-09-21T00:15:45;8.95;;;8.23;;
27977;SDS011;15314;49.248;6.968;2022-09-21T00:16:46;11.18;;;10.10;;
27977;SDS011;15314;49.248;6.968;2022-09-21T00:17:47;9.52;;;8.82;;
27977;SDS011;15314;49.248;6.968;2022-09-21T00:18:51;10.43;;;9.55;;
27977;SDS011;15314;49.248;6.968;2022-09-21T00:19:52;10.07;;;9.18;;
27977;SDS011;15314;49.248;6.968;2022-09-21T00:20:52;10.77;;;9.80;;
27977;SDS011;15314;49.248;6.968;2022-09-21T00:21:53;10.48;;;9.50;;
27977;SDS011;15314;49.248;6.968;2022-09-21T00:22:55;12.00;;;9.80;;
27977;SDS011;15314;49.248;6.968;2022-09-21T00:23:56;11.15;;;8.73;;
27977;SDS011;15314;49.248;6.968;2022-09-21T00:24:58;11.18;;;9.93;;
27977;SDS011;15314;49.248;6.968;2022-09-21T00:26:12;10.38;;;9.32;;
27977;SDS011;15314;49.248;6.968;2022-09-21T00:27:15;10.00;;;9.30;;
27977;SDS011;15314;49.248;6.968;2022-09-21T00:28:16;9.43;;;8.82;;
27977;SDS011;15314;49.248;6.968;2022-09-21T00:29:16;10.02;;;9.32;;
27977;SDS011;15314;49.248;6.968;2022-09-21T00:30:17;10.32;;;9.43;;
27977;SDS011;15314;49.248;6.968;2022-09-21T00:31:18;9.82;;;8.70;;
27977;SDS011;15314;49.248;6.968;2022-09-21T00:32:18;10.10;;;9.07;;
27977;SDS011;15314;49.248;6.968;2022-09-21T00:33:19;9.50;;;8.65;;
27977;SDS011;15314;49.248;6.968;2022-09-21T00:34:19;10.23;;;9.50;;
27977;SDS011;15314;49.248;6.968;2022-09-21T00:35:20;10.13;;;9.30;;
27977;SDS011;15314;49.248;6.968;2022-09-21T00:36:22;10.30;;;9.52;;
27977;SDS011;15314;49.248;6.968;2022-09-21T00:37:23;9.00;;;8.30;;
27977;SDS011;15314;49.248;6.968;2022-09-21T00:38:24;9.85;;;9.07;;
27977;SDS011;15314;49.248;6.968;2022-09-21T00:39:25;10.30;;;9.30;;
27977;SDS011;15314;49.248;6.968;2022-09-21T00:40:25;10.43;;;9.35;;
27977;SDS011;15314;49.248;6.968;2022-09-21T00:41:27;11.32;;;9.68;;
27977;SDS011;15314;49.248;6.968;2022-09-21T00:42:30;9.50;;;8.85;;
27977;SDS011;15314;49.248;6.968;2022-09-21T00:43:33;10.07;;;9.30;;
27977;SDS011;15314;49.248;6.968;2022-09-21T00:44:35;9.80;;;9.10;;
27977;SDS011;15314;49.248;6.968;2022-09-21T00:45:35;10.63;;;9.55;;
27977;SDS011;15314;49.248;6.968;2022-09-21T00:46:37;12.07;;;11.18;;
27977;SDS011;15314;49.248;6.968;2022-09-21T00:47:39;10.25;;;9.48;;
27977;SDS011;15314;49.248;6.968;2022-09-21T00:48:43;9.75;;;8.88;;
27977;SDS011;15314;49.248;6.968;2022-09-21T00:49:46;10.88;;;9.82;;
27977;SDS011;15314;49.248;6.968;2022-09-21T00:50:51;9.68;;;9.18;;
27977;SDS011;15314;49.248;6.968;2022-09-21T00:51:54;10.15;;;9.45;;
27977;SDS011;15314;49.248;6.968;2022-09-21T00:52:57;10.32;;;9.30;;
27977;SDS011;15314;49.248;6.968;2022-09-21T00:53:59;10.38;;;9.52;;
27977;SDS011;15314;49.248;6.968;2022-09-21T00:56:07;10.75;;;9.75;;
27977;SDS011;15314;49.248;6.968;2022-09-21T00:57:09;9.65;;;9.00;;
27977;SDS011;15314;49.248;6.968;2022-09-21T00:58:12;10.15;;;9.20;;
27977;SDS011;15314;49.248;6.968;2022-09-21T00:59:18;10.73;;;9.82;;
27977;SDS011;15314;49.248;6.968;2022-09-21T01:00:19;10.88;;;9.73;;
27977;SDS011;15314;49.248;6.968;2022-09-21T01:01:20;9.75;;;8.95;;
27977;SDS011;15314;49.248;6.968;2022-09-21T01:02:23;10.93;;;9.98;;
27977;SDS011;15314;49.248;6.968;2022-09-21T01:03:24;10.30;;;9.60;;
27977;SDS011;15314;49.248;6.968;2022-09-21T01:04:26;11.65;;;10.88;;
27977;SDS011;15314;49.248;6.968;2022-09-21T01:05:27;10.52;;;9.73;;
27977;SDS011;15314;49.248;6.968;2022-09-21T01:06:28;10.00;;;9.05;;
27977;SDS011;15314;49.248;6.968;2022-09-21T01:07:30;11.43;;;10.40;;
27977;SDS011;15314;49.248;6.968;2022-09-21T01:08:35;11.88;;;10.73;;
27977;SDS011;15314;49.248;6.968;2022-09-21T01:09:39;11.63;;;10.75;;
27977;SDS011;15314;49.248;6.968;2022-09-21T01:12:07;9.98;;;9.05;;
27977;SDS011;15314;49.248;6.968;2022-09-21T01:13:32;10.65;;;9.73;;
27977;SDS011;15314;49.248;6.968;2022-09-21T01:15:00;10.38;;;9.48;;
27977;SDS011;15314;49.248;6.968;2022-09-21T01:16:18;10.98;;;10.05;;
27977;SDS011;15314;49.248;6.968;2022-09-21T01:19:03;10.70;;;9.90;;
27977;SDS011;15314;49.248;6.968;2022-09-21T01:21:52;11.25;;;9.82;;
27977;SDS011;15314;49.248;6.968;2022-09-21T01:24:33;11.20;;;10.20;;
27977;SDS011;15314;49.248;6.968;2022-09-21T01:29:48;11.57;;;10.68;;
27977;SDS011;15314;49.248;6.968;2022-09-21T01:30:54;9.95;;;9.30;;
27977;SDS011;15314;49.248;6.968;2022-09-21T01:33:28;10.57;;;9.75;;
27977;SDS011;15314;49.248;6.968;2022-09-21T01:34:39;10.73;;;9.73;;
27977;SDS011;15314;49.248;6.968;2022-09-21T01:35:47;10.88;;;10.00;;
27977;SDS011;15314;49.248;6.968;2022-09-21T01:37:15;11.57;;;10.50;;
27977;SDS011;15314;49.248;6.968;2022-09-21T01:38:26;10.30;;;9.52;;
27977;SDS011;15314;49.248;6.968;2022-09-21T01:39:34;10.48;;;9.68;;
27977;SDS011;15314;49.248;6.968;2022-09-21T01:40:38;10.68;;;9.60;;
27977;SDS011;15314;49.248;6.968;2022-09-21T01:41:41;10.88;;;9.35;;
27977;SDS011;15314;49.248;6.968;2022-09-21T01:42:44;10.32;;;9.63;;
27977;SDS011;15314;49.248;6.968;2022-09-21T01:43:50;10.07;;;9.38;;
27977;SDS011;15314;49.248;6.968;2022-09-21T01:44:54;10.48;;;9.77;;
27977;SDS011;15314;49.248;6.968;2022-09-21T01:45:59;10.23;;;9.52;;
27977;SDS011;15314;49.248;6.968;2022-09-21T01:47:03;10.23;;;9.52;;
27977;SDS011;15314;49.248;6.968;2022-09-21T01:48:08;10.60;;;9.60;;
27977;SDS011;15314;49.248;6.968;2022-09-21T01:49:14;10.30;;;9.63;;
27977;SDS011;15314;49.248;6.968;2022-09-21T01:50:25;10.18;;;9.30;;
27977;SDS011;15314;49.248;6.968;2022-09-21T01:51:30;9.85;;;9.15;;
27977;SDS011;15314;49.248;6.968;2022-09-21T01:52:35;11.00;;;10.02;;
27977;SDS011;15314;49.248;6.968;2022-09-21T01:53:48;10.45;;;9.48;;
27977;SDS011;15314;49.248;6.968;2022-09-21T01:54:53;10.25;;;9.43;;
27977;SDS011;15314;49.248;6.968;2022-09-21T01:55:59;11.10;;;10.40;;
27977;SDS011;15314;49.248;6.968;2022-09-21T01:57:22;10.77;;;9.68;;
27977;SDS011;15314;49.248;6.968;2022-09-21T01:58:41;10.52;;;9.50;;
27977;SDS011;15314;49.248;6.968;2022-09-21T01:59:48;11.30;;;10.23;;
27977;SDS011;15314;49.248;6.968;2022-09-21T02:00:57;10.95;;;9.88;;
27977;SDS011;15314;49.248;6.968;2022-09-21T02:01:59;10.82;;;10.02;;
27977;SDS011;15314;49.248;6.968;2022-09-21T02:03:14;11.52;;;9.05;;
27977;SDS011;15314;49.248;6.968;2022-09-21T02:04:36;10.18;;;9.52;;
27977;SDS011;15314;49.248;6.968;2022-09-21T02:05:37;10.93;;;9.75;;
27977;SDS011;15314;49.248;6.968;2022-09-21T02:06:40;10.98;;;9.85;;
27977;SDS011;15314;49.248;6.968;2022-09-21T02:07:45;10.82;;;9.98;;
27977;SDS011;15314;49.248;6.968;2022-09-21T02:08:47;10.75;;;9.93;;
27977;SDS011;15314;49.248;6.968;2022-09-21T02:09:48;11.02;;;10.00;;
27977;SDS011;15314;49.248;6.968;2022-09-21T02:10:49;11.02;;;10.13;;
27977;SDS011;15314;49.248;6.968;2022-09-21T02:11:51;10.60;;;9.65;;
27977;SDS011;15314;49.248;6.968;2022-09-21T02:12:53;12.93;;;11.77;;
27977;SDS011;15314;49.248;6.968;2022-09-21T02:13:59;11.95;;;11.00;;
27977;SDS011;15314;49.248;6.968;2022-09-21T02:15:00;10.68;;;9.85;;
27977;SDS011;15314;49.248;6.968;2022-09-21T02:16:05;12.65;;;11.55;;
27977;SDS011;15314;49.248;6.968;2022-09-21T02:21:02;10.65;;;9.85;;
27977;SDS011;15314;49.248;6.968;2022-09-21T02:24:34;11.93;;;9.65;;
27977;SDS011;15314;49.248;6.968;2022-09-21T02:26:21;10.02;;;9.23;;
27977;SDS011;15314;49.248;6.968;2022-09-21T02:29:34;10.60;;;9.90;;
27977;SDS011;15314;49.248;6.968;2022-09-21T02:30:24;10.95;;;10.02;;
27977;SDS011;15314;49.248;6.968;2022-09-21T02:33:57;12.70;;;11.50;;
27977;SDS011;15314;49.248;6.968;2022-09-21T02:35:06;11.45;;;10.40;;
27977;SDS011;15314;49.248;6.968;2022-09-21T02:36:10;10.70;;;9.70;;
27977;SDS011;15314;49.248;6.968;2022-09-21T02:37:43;10.30;;;9.60;;
27977;SDS011;15314;49.248;6.968;2022-09-21T02:38:49;10.52;;;9.70;;
27977;SDS011;15314;49.248;6.968;2022-09-21T02:39:56;10.63;;;9.73;;
27977;SDS011;15314;49.248;6.968;2022-09-21T02:41:10;11.32;;;10.18;;
27977;SDS011;15314;49.248;6.968;2022-09-21T02:42:17;11.13;;;10.25;;
27977;SDS011;15314;49.248;6.968;2022-09-21T02:43:30;12.73;;;11.63;;
27977;SDS011;15314;49.248;6.968;2022-09-21T02:44:38;10.48;;;9.68;;
27977;SDS011;15314;49.248;6.968;2022-09-21T02:45:46;9.93;;;9.32;;
27977;SDS011;15314;49.248;6.968;2022-09-21T02:46:54;12.00;;;10.85;;
27977;SDS011;15314;49.248;6.968;2022-09-21T02:48:07;11.02;;;10.15;;
27977;SDS011;15314;49.248;6.968;2022-09-21T02:49:15;10.57;;;9.75;;
27977;SDS011;15314;49.248;6.968;2022-09-21T02:50:20;9.73;;;9.07;;
27977;SDS011;15314;49.248;6.968;2022-09-21T02:51:32;9.82;;;9.15;;
27977;SDS011;15314;49.248;6.968;2022-09-21T02:52:46;11.35;;;10.45;;
27977;SDS011;15314;49.248;6.968;2022-09-21T02:53:47;11.75;;;10.80;;
27977;SDS011;15314;49.248;6.968;2022-09-21T02:54:51;10.70;;;9.80;;
27977;SDS011;15314;49.248;6.968;2022-09-21T02:55:54;9.93;;;9.23;;
27977;SDS011;15314;49.248;6.968;2022-09-21T02:56:57;10.50;;;9.60;;
27977;SDS011;15314;49.248;6.968;2022-09-21T02:58:01;15.27;;;12.35;;
27977;SDS011;15314;49.248;6.968;2022-09-21T02:59:04;10.23;;;9.15;;
27977;SDS011;15314;49.248;6.968;2022-09-21T03:00:06;10.60;;;9.80;;
27977;SDS011;15314;49.248;6.968;2022-09-21T03:01:09;9.18;;;8.45;;
27977;SDS011;15314;49.248;6.968;2022-09-21T03:02:11;9.20;;;8.50;;
27977;SDS011;15314;49.248;6.968;2022-09-21T03:03:13;9.48;;;8.75;;
27977;SDS011;15314;49.248;6.968;2022-09-21T03:04:16;9.70;;;9.00;;
27977;SDS011;15314;49.248;6.968;2022-09-21T03:05:17;8.80;;;8.23;;
27977;SDS011;15314;49.248;6.968;2022-09-21T03:06:17;14.25;;;10.05;;
27977;SDS011;15314;49.248;6.968;2022-09-21T03:07:18;9.35;;;8.52;;
27977;SDS011;15314;49.248;6.968;2022-09-21T03:08:19;9.10;;;8.32;;
27977;SDS011;15314;49.248;6.968;2022-09-21T03:09:19;10.15;;;8.55;;
27977;SDS011;15314;49.248;6.968;2022-09-21T03:10:23;9.57;;;8.75;;
27977;SDS011;15314;49.248;6.968;2022-09-21T03:11:24;9.50;;;8.77;;
27977;SDS011;15314;49.248;6.968;2022-09-21T03:12:25;10.65;;;8.77;;
27977;SDS011;15314;49.248;6.968;2022-09-21T03:13:25;8.77;;;7.97;;
27977;SDS011;15314;49.248;6.968;2022-09-21T03:14:26;9.07;;;8.48;;
27977;SDS011;15314;49.248;6.968;2022-09-21T03:15:27;9.38;;;8.48;;
27977;SDS011;15314;49.248;6.968;2022-09-21T03:16:27;9.00;;;8.13;;
27977;SDS011;15314;49.248;6.968;2022-09-21T03:17:28;10.18;;;8.77;;
27977;SDS011;15314;49.248;6.968;2022-09-21T03:18:29;8.43;;;7.65;;
27977;SDS011;15314;49.248;6.968;2022-09-21T03:19:30;13.80;;;10.88;;
27977;SDS011;15314;49.248;6.968;2022-09-21T03:20:32;10.13;;;8.85;;
27977;SDS011;15314;49.248;6.968;2022-09-21T03:21:32;10.85;;;8.77;;
27977;SDS011;15314;49.248;6.968;2022-09-21T03:22:33;9.15;;;8.38;;
27977;SDS011;15314;49.248;6.968;2022-09-21T03:23:34;11.02;;;9.52;;
27977;SDS011;15314;49.248;6.968;2022-09-21T03:24:34;9.15;;;8.45;;
27977;SDS011;15314;49.248;6.968;2022-09-21T03:25:44;9.77;;;9.13;;
27977;SDS011;15314;49.248;6.968;2022-09-21T03:26:45;8.75;;;8.15;;
27977;SDS011;15314;49.248;6.968;2022-09-21T03:27:47;9.90;;;8.90;;
27977;SDS011;15314;49.248;6.968;2022-09-21T03:28:48;9.90;;;9.05;;
27977;SDS011;15314;49.248;6.968;2022-09-21T03:29:49;9.77;;;8.77;;
27977;SDS011;15314;49.248;6.968;2022-09-21T03:30:50;10.05;;;9.07;;
27977;SDS011;15314;49.248;6.968;2022-09-21T03:31:51;10.18;;;8.63;;
27977;SDS011;15314;49.248;6.968;2022-09-21T03:32:54;8.57;;;8.02;;
27977;SDS011;15314;49.248;6.968;2022-09-21T03:33:55;9.27;;;8.23;;
27977;SDS011;15314;49.248;6.968;2022-09-21T03:34:55;10.25;;;9.32;;
27977;SDS011;15314;49.248;6.968;2022-09-21T03:35:56;9.93;;;9.13;;
27977;SDS011;15314;49.248;6.968;2022-09-21T03:36:57;9.98;;;9.30;;
27977;SDS011;15314;49.248;6.968;2022-09-21T03:37:58;11.77;;;10.90;;
27977;SDS011;15314;49.248;6.968;2022-09-21T03:38:59;9.95;;;9.00;;
27977;SDS011;15314;49.248;6.968;2022-09-21T03:40:00;10.57;;;9.63;;
27977;SDS011;15314;49.248;6.968;2022-09-21T03:41:01;10.05;;;9.20;;
27977;SDS011;15314;49.248;6.968;2022-09-21T03:42:02;10.50;;;9.52;;
27977;SDS011;15314;49.248;6.968;2022-09-21T03:43:03;10.10;;;9.20;;
27977;SDS011;15314;49.248;6.968;2022-09-21T03:44:03;9.98;;;9.00;;
27977;SDS011;15314;49.248;6.968;2022-09-21T03:45:04;10.40;;;9.38;;
27977;SDS011;15314;49.248;6.968;2022-09-21T03:46:05;10.60;;;9.82;;
27977;SDS011;15314;49.248;6.968;2022-09-21T03:47:06;11.50;;;10.32;;
27977;SDS011;15314;49.248;6.968;2022-09-21T03:48:07;9.43;;;8.68;;
27977;SDS011;15314;49.248;6.968;2022-09-21T03:49:09;12.07;;;9.20;;
27977;SDS011;15314;49.248;6.968;2022-09-21T03:50:10;10.05;;;8.20;;
27977;SDS011;15314;49.248;6.968;2022-09-21T03:51:11;9.75;;;8.93;;
27977;SDS011;15314;49.248;6.968;2022-09-21T03:52:11;8.75;;;8.25;;
27977;SDS011;15314;49.248;6.968;2022-09-21T03:53:12;9.40;;;8.63;;
27977;SDS011;15314;49.248;6.968;2022-09-21T03:54:13;10.70;;;9.18;;
27977;SDS011;15314;49.248;6.968;2022-09-21T03:55:14;9.98;;;8.90;;
27977;SDS011;15314;49.248;6.968;2022-09-21T03:56:15;10.63;;;9.70;;
27977;SDS011;15314;49.248;6.968;2022-09-21T03:57:15;9.82;;;8.77;;
27977;SDS011;15314;49.248;6.968;2022-09-21T03:58:16;8.65;;;8.07;;
27977;SDS011;15314;49.248;6.968;2022-09-21T03:59:17;11.07;;;10.07;;
27977;SDS011;15314;49.248;6.968;2022-09-21T04:00:18;10.35;;;9.05;;
27977;SDS011;15314;49.248;6.968;2022-09-21T04:01:19;12.27;;;8.98;;
27977;SDS011;15314;49.248;6.968;2022-09-21T04:02:19;9.27;;;8.70;;
27977;SDS011;15314;49.248;6.968;2022-09-21T04:03:21;9.02;;;8.13;;
27977;SDS011;15314;49.248;6.968;2022-09-21T04:04:22;11.20;;;10.10;;
27977;SDS011;15314;49.248;6.968;2022-09-21T04:05:23;8.90;;;8.20;;
27977;SDS011;15314;49.248;6.968;2022-09-21T04:06:24;10.02;;;9.02;;
27977;SDS011;15314;49.248;6.968;2022-09-21T04:07:25;11.75;;;8.93;;
27977;SDS011;15314;49.248;6.968;2022-09-21T04:08:29;9.77;;;8.90;;
27977;SDS011;15314;49.248;6.968;2022-09-21T04:09:31;9.80;;;8.88;;
27977;SDS011;15314;49.248;6.968;2022-09-21T04:10:32;9.23;;;8.60;;
27977;SDS011;15314;49.248;6.968;2022-09-21T04:11:33;10.00;;;9.05;;
27977;SDS011;15314;49.248;6.968;2022-09-21T04:12:34;9.00;;;8.40;;
27977;SDS011;15314;49.248;6.968;2022-09-21T04:13:35;9.35;;;8.60;;
27977;SDS011;15314;49.248;6.968;2022-09-21T04:14:36;9.30;;;8.60;;
27977;SDS011;15314;49.248;6.968;2022-09-21T04:15:36;11.43;;;10.23;;
27977;SDS011;15314;49.248;6.968;2022-09-21T04:16:37;12.43;;;11.27;;
27977;SDS011;15314;49.248;6.968;2022-09-21T04:17:37;8.70;;;8.00;;
27977;SDS011;15314;49.248;6.968;2022-09-21T04:18:38;8.73;;;8.00;;
27977;SDS011;15314;49.248;6.968;2022-09-21T04:19:39;8.25;;;7.45;;
27977;SDS011;15314;49.248;6.968;2022-09-21T04:20:39;9.57;;;8.90;;
27977;SDS011;15314;49.248;6.968;2022-09-21T04:21:40;8.85;;;8.05;;
27977;SDS011;15314;49.248;6.968;2022-09-21T04:22:41;8.82;;;8.07;;
27977;SDS011;15314;49.248;6.968;2022-09-21T04:23:42;10.23;;;8.25;;
27977;SDS011;15314;49.248;6.968;2022-09-21T04:24:43;9.55;;;8.95;;
27977;SDS011;15314;49.248;6.968;2022-09-21T04:25:44;10.27;;;9.50;;
27977;SDS011;15314;49.248;6.968;2022-09-21T04:26:47;9.75;;;8.55;;
27977;SDS011;15314;49.248;6.968;2022-09-21T04:27:48;9.27;;;8.60;;
27977;SDS011;15314;49.248;6.968;2022-09-21T04:28:49;10.63;;;9.60;;
27977;SDS011;15314;49.248;6.968;2022-09-21T04:29:50;10.95;;;9.55;;
27977;SDS011;15314;49.248;6.968;2022-09-21T04:30:51;10.20;;;9.07;;
27977;SDS011;15314;49.248;6.968;2022-09-21T04:31:53;14.02;;;10.60;;
27977;SDS011;15314;49.248;6.968;2022-09-21T04:32:53;10.48;;;9.60;;
27977;SDS011;15314;49.248;6.968;2022-09-21T04:33:54;9.85;;;9.10;;
27977;SDS011;15314;49.248;6.968;2022-09-21T04:34:56;13.10;;;10.52;;
27977;SDS011;15314;49.248;6.968;2022-09-21T04:35:57;9.80;;;8.95;;
27977;SDS011;15314;49.248;6.968;2022-09-21T04:36:58;9.20;;;8.60;;
27977;SDS011;15314;49.248;6.968;2022-09-21T04:37:58;8.90;;;8.30;;
27977;SDS011;15314;49.248;6.968;2022-09-21T04:38:59;10.52;;;9.02;;
27977;SDS011;15314;49.248;6.968;2022-09-21T04:40:00;10.30;;;9.35;;
27977;SDS011;15314;49.248;6.968;2022-09-21T04:41:01;8.82;;;8.20;;
27977;SDS011;15314;49.248;6.968;2022-09-21T04:42:02;14.73;;;9.57;;
27977;SDS011;15314;49.248;6.968;2022-09-21T04:43:03;10.10;;;9.20;;
27977;SDS011;15314;49.248;6.968;2022-09-21T04:44:04;9.90;;;9.20;;
27977;SDS011;15314;49.248;6.968;2022-09-21T04:45:05;9.68;;;8.70;;
27977;SDS011;15314;49.248;6.968;2022-09-21T04:46:07;9.38;;;8.70;;
27977;SDS011;15314;49.248;6.968;2022-09-21T04:47:10;9.23;;;8.55;;
27977;SDS011;15314;49.248;6.968;2022-09-21T04:48:10;10.05;;;8.98;;
27977;SDS011;15314;49.248;6.968;2022-09-21T04:49:11;9.63;;;8.95;;
27977;SDS011;15314;49.248;6.968;2022-09-21T04:50:12;11.68;;;10.50;;
27977;SDS011;15314;49.248;6.968;2022-09-21T04:51:13;11.05;;;10.18;;
27977;SDS011;15314;49.248;6.968;2022-09-21T04:52:15;11.10;;;10.10;;
27977;SDS011;15314;49.248;6.968;2022-09-21T04:53:16;10.15;;;9.35;;
27977;SDS011;15314;49.248;6.968;2022-09-21T04:54:17;9.95;;;9.10;;
27977;SDS011;15314;49.248;6.968;2022-09-21T04:55:17;9.63;;;8.93;;
27977;SDS011;15314;49.248;6.968;2022-09-21T04:56:19;9.75;;;8.88;;
27977;SDS011;15314;49.248;6.968;2022-09-21T04:57:19;9.48;;;8.88;;
27977;SDS011;15314;49.248;6.968;2022-09-21T04:58:21;12.27;;;9.13;;
27977;SDS011;15314;49.248;6.968;2022-09-21T04:59:22;9.52;;;8.60;;
27977;SDS011;15314;49.248;6.968;2022-09-21T05:00:22;11.18;;;10.02;;
27977;SDS011;15314;49.248;6.968;2022-09-21T05:01:23;10.73;;;9.75;;
27977;SDS011;15314;49.248;6.968;2022-09-21T05:02:24;15.93;;;9.40;;
27977;SDS011;15314;49.248;6.968;2022-09-21T05:03:25;10.57;;;9.77;;
27977;SDS011;15314;49.248;6.968;2022-09-21T05:04:25;11.15;;;9.73;;
27977;SDS011;15314;49.248;6.968;2022-09-21T05:05:26;10.63;;;9.70;;
27977;SDS011;15314;49.248;6.968;2022-09-21T05:06:27;12.05;;;11.05;;
27977;SDS011;15314;49.248;6.968;2022-09-21T05:07:28;11.82;;;10.60;;
27977;SDS011;15314;49.248;6.968;2022-09-21T05:08:29;12.50;;;10.75;;
27977;SDS011;15314;49.248;6.968;2022-09-21T05:09:48;10.43;;;9.52;;
27977;SDS011;15314;49.248;6.968;2022-09-21T05:11:04;14.23;;;11.85;;
27977;SDS011;15314;49.248;6.968;2022-09-21T05:12:05;10.43;;;9.45;;
27977;SDS011;15314;49.248;6.968;2022-09-21T05:13:06;15.13;;;12.43;;
27977;SDS011;15314;49.248;6.968;2022-09-21T05:14:07;10.10;;;9.40;;
27977;SDS011;15314;49.248;6.968;2022-09-21T05:15:08;10.55;;;9.82;;
27977;SDS011;15314;49.248;6.968;2022-09-21T05:16:10;11.00;;;9.80;;
27977;SDS011;15314;49.248;6.968;2022-09-21T05:17:10;11.57;;;10.48;;
27977;SDS011;15314;49.248;6.968;2022-09-21T05:18:11;9.88;;;9.13;;
27977;SDS011;15314;49.248;6.968;2022-09-21T05:19:12;11.90;;;10.45;;
27977;SDS011;15314;49.248;6.968;2022-09-21T05:20:13;10.82;;;9.93;;
27977;SDS011;15314;49.248;6.968;2022-09-21T05:21:13;10.13;;;9.30;;
27977;SDS011;15314;49.248;6.968;2022-09-21T05:22:14;9.82;;;8.93;;
27977;SDS011;15314;49.248;6.968;2022-09-21T05:23:15;10.18;;;9.30;;
27977;SDS011;15314;49.248;6.968;2022-09-21T05:24:16;9.80;;;8.88;;
27977;SDS011;15314;49.248;6.968;2022-09-21T05:25:16;10.63;;;9.73;;
27977;SDS011;15314;49.248;6.968;2022-09-21T05:26:20;11.43;;;9.13;;
27977;SDS011;15314;49.248;6.968;2022-09-21T05:27:20;10.65;;;9.80;;
27977;SDS011;15314;49.248;6.968;2022-09-21T05:28:21;10.73;;;9.68;;
27977;SDS011;15314;49.248;6.968;2022-09-21T05:29:23;11.60;;;10.52;;
27977;SDS011;15314;49.248;6.968;2022-09-21T05:30:24;11.70;;;10.57;;
27977;SDS011;15314;49.248;6.968;2022-09-21T05:32:46;12.07;;;11.20;;
27977;SDS011;15314;49.248;6.968;2022-09-21T05:33:53;10.77;;;10.07;;
27977;SDS011;15314;49.248;6.968;2022-09-21T05:37:50;11.00;;;10.20;;
27977;SDS011;15314;49.248;6.968;2022-09-21T05:38:58;11.75;;;10.70;;
27977;SDS011;15314;49.248;6.968;2022-09-21T05:39:59;12.18;;;11.15;;
27977;SDS011;15314;49.248;6.968;2022-09-21T05:41:00;13.52;;;12.20;;
27977;SDS011;15314;49.248;6.968;2022-09-21T05:42:01;14.18;;;11.43;;
27977;SDS011;15314;49.248;6.968;2022-09-21T05:43:02;13.40;;;11.77;;
27977;SDS011;15314;49.248;6.968;2022-09-21T05:44:03;11.98;;;11.07;;
27977;SDS011;15314;49.248;6.968;2022-09-21T05:45:04;11.63;;;10.80;;
27977;SDS011;15314;49.248;6.968;2022-09-21T05:47:25;13.05;;;12.25;;
27977;SDS011;15314;49.248;6.968;2022-09-21T05:48:39;12.75;;;11.52;;
27977;SDS011;15314;49.248;6.968;2022-09-21T05:49:52;12.77;;;11.57;;
27977;SDS011;15314;49.248;6.968;2022-09-21T05:54:53;12.23;;;11.07;;
27977;SDS011;15314;49.248;6.968;2022-09-21T05:56:23;12.32;;;11.32;;
27977;SDS011;15314;49.248;6.968;2022-09-21T06:01:06;13.68;;;12.35;;
27977;SDS011;15314;49.248;6.968;2022-09-21T06:02:48;12.70;;;11.48;;
27977;SDS011;15314;49.248;6.968;2022-09-21T06:04:09;12.10;;;11.30;;
27977;SDS011;15314;49.248;6.968;2022-09-21T06:05:12;12.07;;;11.15;;
27977;SDS011;15314;49.248;6.968;2022-09-21T06:06:14;11.98;;;11.02;;
27977;SDS011;15314;49.248;6.968;2022-09-21T06:07:17;12.13;;;11.23;;
27977;SDS011;15314;49.248;6.968;2022-09-21T06:08:17;13.18;;;11.95;;
27977;SDS011;15314;49.248;6.968;2022-09-21T06:09:18;12.77;;;11.73;;
27977;SDS011;15314;49.248;6.968;2022-09-21T06:10:19;12.73;;;11.52;;
27977;SDS011;15314;49.248;6.968;2022-09-21T06:11:20;11.85;;;10.95;;
27977;SDS011;15314;49.248;6.968;2022-09-21T06:12:21;12.15;;;11.10;;
27977;SDS011;15314;49.248;6.968;2022-09-21T06:13:21;12.15;;;11.25;;
27977;SDS011;15314;49.248;6.968;2022-09-21T06:14:22;11.40;;;10.45;;
27977;SDS011;15314;49.248;6.968;2022-09-21T06:15:25;11.80;;;10.98;;
27977;SDS011;15314;49.248;6.968;2022-09-21T06:16:26;13.13;;;11.93;;
27977;SDS011;15314;49.248;6.968;2022-09-21T06:17:27;11.98;;;10.93;;
27977;SDS011;15314;49.248;6.968;2022-09-21T06:18:27;11.95;;;11.05;;
27977;SDS011;15314;49.248;6.968;2022-09-21T06:19:28;11.50;;;10.52;;
27977;SDS011;15314;49.248;6.968;2022-09-21T06:20:28;10.63;;;9.93;;
27977;SDS011;15314;49.248;6.968;2022-09-21T06:21:29;11.05;;;10.20;;
27977;SDS011;15314;49.248;6.968;2022-09-21T06:22:30;13.07;;;11.73;;
27977;SDS011;15314;49.248;6.968;2022-09-21T06:23:30;11.93;;;10.98;;
27977;SDS011;15314;49.248;6.968;2022-09-21T06:24:31;13.20;;;12.00;;
27977;SDS011;15314;49.248;6.968;2022-09-21T06:25:32;12.85;;;11.75;;
27977;SDS011;15314;49.248;6.968;2022-09-21T06:26:33;12.15;;;11.25;;
27977;SDS011;15314;49.248;6.968;2022-09-21T06:27:33;13.95;;;12.75;;
27977;SDS011;15314;49.248;6.968;2022-09-21T06:28:34;13.32;;;12.27;;
27977;SDS011;15314;49.248;6.968;2022-09-21T06:29:35;11.70;;;10.57;;
27977;SDS011;15314;49.248;6.968;2022-09-21T06:30:35;11.85;;;10.80;;
27977;SDS011;15314;49.248;6.968;2022-09-21T06:31:37;11.90;;;10.75;;
27977;SDS011;15314;49.248;6.968;2022-09-21T06:32:38;10.75;;;10.05;;
27977;SDS011;15314;49.248;6.968;2022-09-21T06:33:39;10.68;;;10.00;;
27977;SDS011;15314;49.248;6.968;2022-09-21T06:34:39;10.65;;;9.95;;
27977;SDS011;15314;49.248;6.968;2022-09-21T06:35:41;11.07;;;10.38;;
27977;SDS011;15314;49.248;6.968;2022-09-21T06:36:42;11.80;;;10.77;;
27977;SDS011;15314;49.248;6.968;2022-09-21T06:37:44;11.27;;;10.27;;
27977;SDS011;15314;49.248;6.968;2022-09-21T06:38:45;12.13;;;11.35;;
27977;SDS011;15314;49.248;6.968;2022-09-21T06:39:45;11.98;;;10.90;;
27977;SDS011;15314;49.248;6.968;2022-09-21T06:40:46;10.98;;;10.32;;
27977;SDS011;15314;49.248;6.968;2022-09-21T06:41:47;10.75;;;9.95;;
27977;SDS011;15314;49.248;6.968;2022-09-21T06:42:47;10.70;;;10.00;;
27977;SDS011;15314;49.248;6.968;2022-09-21T06:43:48;10.55;;;9.82;;
27977;SDS011;15314;49.248;6.968;2022-09-21T06:44:52;10.65;;;9.90;;
27977;SDS011;15314;49.248;6.968;2022-09-21T06:45:55;11.30;;;10.23;;
27977;SDS011;15314;49.248;6.968;2022-09-21T06:46:57;10.25;;;9.32;;
27977;SDS011;15314;49.248;6.968;2022-09-21T06:47:58;10.48;;;9.55;;
27977;SDS011;15314;49.248;6.968;2022-09-21T06:48:59;10.57;;;9.85;;
27977;SDS011;15314;49.248;6.968;2022-09-21T06:49:59;11.18;;;10.38;;
27977;SDS011;15314;49.248;6.968;2022-09-21T06:51:01;11.00;;;10.20;;
27977;SDS011;15314;49.248;6.968;2022-09-21T06:52:03;12.25;;;11.25;;